Time;durP1;ratioP1;P1;durP2;ratioP2;P2;SDS_P1;SDS_P2;PMS_P1;PMS_P2;Temp;Humidity;BMP_temperature;BMP_pressure;BME280_temperature;BME280_humidity;BME280_pressure;Samples;Min_cycle;Max_cycle;Signal;HPM_P1;HPM_P2
2024/01/24 00:00:04;;;;;;;6.65;1.60;;;4.70;99.90;;;;;;4952380;28;20070;-67
2024/01/24 00:02:30;;;;;;;5.30;2.05;;;4.60;99.90;;;;;;4948915;28;20027;-64
2024/01/24 00:04:56;;;;;;;11.45;2.00;;;4.60;99.90;;;;;;4956990;28;20368;-66
2024/01/24 00:07:21;;;;;;;12.80;2.72;;;4.60;99.90;;;;;;4947183;28;20027;-65
2024/01/24 00:09:47;;;;;;;11.35;1.63;;;4.70;99.90;;;;;;4946434;28;20380;-64
2024/01/24 00:12:13;;;;;;;4.68;1.45;;;4.70;99.90;;;;;;4947694;28;20043;-65
2024/01/24 00:14:38;;;;;;;10.77;1.70;;;4.70;99.90;;;;;;4947712;28;20035;-65
2024/01/24 00:17:05;;;;;;;4.75;1.42;;;4.70;99.90;;;;;;4943044;28;20507;-63
2024/01/24 00:19:30;;;;;;;6.90;1.42;;;4.70;99.90;;;;;;4945423;28;20026;-64
2024/01/24 00:21:56;;;;;;;10.48;2.08;;;4.70;99.90;;;;;;4952630;28;20035;-65
2024/01/24 00:24:22;;;;;;;14.18;2.17;;;4.80;99.90;;;;;;4933483;28;20051;-65
2024/01/24 00:26:48;;;;;;;6.97;1.40;;;4.80;99.90;;;;;;4929848;28;20035;-66
2024/01/24 00:29:13;;;;;;;10.65;1.92;;;4.70;99.90;;;;;;4947608;28;20039;-64
2024/01/24 00:31:39;;;;;;;18.20;3.97;;;4.80;99.90;;;;;;4945037;28;20039;-65
2024/01/24 00:34:05;;;;;;;8.43;1.83;;;4.80;99.90;;;;;;4948528;28;20038;-66
2024/01/24 00:36:30;;;;;;;9.48;1.88;;;4.80;99.90;;;;;;4925368;28;20032;-65
2024/01/24 00:38:56;;;;;;;5.93;2.08;;;4.90;99.90;;;;;;4941387;28;20039;-66
2024/01/24 00:41:21;;;;;;;8.73;1.85;;;4.90;99.90;;;;;;4942214;28;20671;-66
2024/01/24 00:43:47;;;;;;;12.93;1.70;;;4.90;99.90;;;;;;4926841;29;20035;-66
2024/01/24 00:46:13;;;;;;;9.75;2.22;;;4.90;99.90;;;;;;4948008;28;20040;-64
2024/01/24 00:48:38;;;;;;;10.07;2.28;;;4.90;99.90;;;;;;4951368;28;20109;-65
2024/01/24 00:51:04;;;;;;;6.22;2.17;;;4.90;99.90;;;;;;4949616;28;20066;-64
2024/01/24 00:53:34;;;;;;;9.38;1.88;;;4.90;99.90;;;;;;4957611;28;20046;-65
2024/01/24 00:56:00;;;;;;;11.17;2.20;;;4.90;99.90;;;;;;4963225;28;20023;-65
2024/01/24 00:58:25;;;;;;;11.35;2.10;;;4.90;99.90;;;;;;4947306;28;20035;-65
2024/01/24 01:00:51;;;;;;;16.40;2.60;;;4.90;99.90;;;;;;4954121;28;20040;-65
2024/01/24 01:03:17;;;;;;;9.23;2.55;;;4.90;99.90;;;;;;4952818;28;20069;-65
2024/01/24 01:05:43;;;;;;;14.40;3.05;;;5.00;99.90;;;;;;4937545;28;20060;-64
2024/01/24 01:08:08;;;;;;;4.05;1.77;;;4.90;99.90;;;;;;4934892;28;20024;-65
2024/01/24 01:10:34;;;;;;;6.95;1.95;;;5.00;99.90;;;;;;4953108;28;20019;-65
2024/01/24 01:13:00;;;;;;;13.32;2.15;;;5.00;99.90;;;;;;4926713;28;20043;-66
2024/01/24 01:15:25;;;;;;;8.57;2.40;;;5.00;99.90;;;;;;4938364;28;20023;-65
2024/01/24 01:17:51;;;;;;;5.82;2.17;;;5.00;99.90;;;;;;4950463;28;20035;-64
2024/01/24 01:20:19;;;;;;;12.00;2.35;;;5.00;99.90;;;;;;4951137;28;20411;-65
2024/01/24 01:22:47;;;;;;;12.00;2.88;;;5.00;99.90;;;;;;4949305;28;20759;-65
2024/01/24 01:25:13;;;;;;;8.50;1.60;;;5.10;99.90;;;;;;4951162;28;20982;-64
2024/01/24 01:27:40;;;;;;;17.88;3.22;;;5.10;99.90;;;;;;4952726;28;20039;-64
2024/01/24 01:30:07;;;;;;;6.68;1.85;;;5.10;99.90;;;;;;4953012;28;20102;-65
2024/01/24 01:32:33;;;;;;;5.88;1.85;;;5.00;99.90;;;;;;4953184;28;20455;-64
2024/01/24 01:34:59;;;;;;;15.32;2.33;;;5.00;99.90;;;;;;4953544;28;20019;-66
2024/01/24 01:37:25;;;;;;;9.02;2.45;;;5.10;99.90;;;;;;4949668;28;20039;-65
2024/01/24 01:39:51;;;;;;;8.32;1.77;;;5.10;99.90;;;;;;4950119;28;20062;-65
2024/01/24 01:42:16;;;;;;;10.45;2.00;;;5.10;99.90;;;;;;4949754;28;20035;-65
2024/01/24 01:44:46;;;;;;;8.00;1.52;;;5.10;99.90;;;;;;4946396;28;20748;-66
2024/01/24 01:47:13;;;;;;;14.43;2.05;;;5.10;99.90;;;;;;4945102;28;20495;-65
2024/01/24 01:49:39;;;;;;;14.05;2.33;;;5.10;99.90;;;;;;4951117;28;20106;-66
2024/01/24 01:52:05;;;;;;;8.25;1.70;;;5.10;99.90;;;;;;4950837;28;20036;-65
2024/01/24 01:54:31;;;;;;;9.30;2.22;;;5.10;99.90;;;;;;4950190;28;20032;-65
2024/01/24 01:56:57;;;;;;;9.18;1.63;;;5.10;99.90;;;;;;4940366;28;20090;-65
2024/01/24 01:59:24;;;;;;;9.80;2.20;;;5.10;99.90;;;;;;4934331;28;20106;-65
2024/01/24 02:01:52;;;;;;;26.25;3.78;;;5.20;99.90;;;;;;4949970;28;20496;-65
2024/01/24 02:04:18;;;;;;;5.18;1.45;;;5.20;99.90;;;;;;4947452;28;20040;-67
2024/01/24 02:06:43;;;;;;;6.43;1.65;;;5.20;99.90;;;;;;4951471;28;20027;-64
2024/01/24 02:09:10;;;;;;;16.75;2.60;;;5.20;99.90;;;;;;4950243;28;20518;-65
2024/01/24 02:11:36;;;;;;;11.45;1.77;;;5.20;99.90;;;;;;4949760;28;20062;-65
2024/01/24 02:14:01;;;;;;;5.45;1.70;;;5.20;99.90;;;;;;4945979;28;20078;-66
2024/01/24 02:16:27;;;;;;;9.35;1.90;;;5.30;99.90;;;;;;4949831;28;20035;-65
2024/01/24 02:18:53;;;;;;;6.40;1.83;;;5.30;99.90;;;;;;4949238;28;20118;-65
2024/01/24 02:21:18;;;;;;;10.45;2.03;;;5.30;99.90;;;;;;4933216;28;20055;-65
2024/01/24 02:23:45;;;;;;;6.80;1.55;;;5.30;99.90;;;;;;4923724;29;20404;-65
2024/01/24 02:26:11;;;;;;;7.53;1.75;;;5.40;99.90;;;;;;4929431;28;20023;-64
2024/01/24 02:28:37;;;;;;;9.18;1.92;;;5.40;99.90;;;;;;4951093;28;20058;-64
2024/01/24 02:31:02;;;;;;;3.28;1.63;;;5.40;99.90;;;;;;4948757;28;20063;-64
2024/01/24 02:33:28;;;;;;;7.70;2.20;;;5.50;99.90;;;;;;4945240;28;20060;-65
2024/01/24 02:35:53;;;;;;;12.35;2.20;;;5.60;99.90;;;;;;4946953;28;20032;-65
2024/01/24 02:38:19;;;;;;;5.90;1.73;;;5.80;99.90;;;;;;4946738;28;20055;-64
2024/01/24 02:40:44;;;;;;;14.02;3.72;;;6.10;99.90;;;;;;4955189;28;20043;-64
2024/01/24 02:43:10;;;;;;;9.45;2.60;;;6.30;99.90;;;;;;4955248;28;20027;-64
2024/01/24 02:45:36;;;;;;;11.10;2.53;;;6.60;99.90;;;;;;4943727;28;20388;-66
2024/01/24 02:48:01;;;;;;;12.50;2.22;;;6.80;99.90;;;;;;4942195;28;20590;-64
2024/01/24 02:50:27;;;;;;;4.75;1.80;;;6.90;99.90;;;;;;4949128;28;20047;-65
2024/01/24 02:52:53;;;;;;;9.30;2.15;;;7.10;99.90;;;;;;4949675;28;20107;-65
2024/01/24 02:55:18;;;;;;;8.38;2.30;;;7.10;99.90;;;;;;4952036;28;20023;-65
2024/01/24 02:57:44;;;;;;;6.40;1.60;;;7.20;99.90;;;;;;4948461;28;20098;-64
2024/01/24 03:00:12;;;;;;;8.63;3.15;;;7.20;99.90;;;;;;4947085;28;20035;-64
2024/01/24 03:02:39;;;;;;;9.68;2.50;;;7.20;99.90;;;;;;4959573;28;20031;-64
2024/01/24 03:05:06;;;;;;;7.95;1.50;;;7.20;99.90;;;;;;4946322;28;20023;-63
2024/01/24 03:07:31;;;;;;;10.38;1.95;;;7.20;99.90;;;;;;4958858;28;20032;-64
2024/01/24 03:09:57;;;;;;;12.18;2.60;;;7.20;99.90;;;;;;4948819;28;20082;-64
2024/01/24 03:12:23;;;;;;;11.88;3.22;;;7.20;99.90;;;;;;4949142;28;20495;-65
2024/01/24 03:14:48;;;;;;;10.10;3.63;;;7.20;99.90;;;;;;4945113;28;20114;-65
2024/01/24 03:17:14;;;;;;;16.88;2.85;;;7.10;99.90;;;;;;4952935;28;20628;-65
2024/01/24 03:19:39;;;;;;;8.95;1.55;;;7.20;99.90;;;;;;4945833;28;20057;-65
2024/01/24 03:22:05;;;;;;;5.57;1.55;;;7.20;99.90;;;;;;4945461;28;20046;-65
2024/01/24 03:24:31;;;;;;;6.57;2.42;;;7.40;99.90;;;;;;4941596;28;20020;-65
2024/01/24 03:26:56;;;;;;;6.15;1.50;;;7.40;99.90;;;;;;4946984;28;20077;-64
2024/01/24 03:29:22;;;;;;;12.00;2.03;;;7.40;99.90;;;;;;4946798;28;20028;-66
2024/01/24 03:31:47;;;;;;;7.82;1.52;;;7.40;99.90;;;;;;4945558;28;20086;-64
2024/01/24 03:34:13;;;;;;;4.80;1.35;;;7.40;99.90;;;;;;4948863;28;20134;-65
2024/01/24 03:36:39;;;;;;;4.18;1.45;;;7.40;99.90;;;;;;4948587;28;21655;-65
2024/01/24 03:39:05;;;;;;;5.05;1.77;;;7.40;99.90;;;;;;4949457;28;20035;-64
2024/01/24 03:41:30;;;;;;;5.13;2.05;;;7.40;99.90;;;;;;4952488;28;20030;-65
2024/01/24 03:43:56;;;;;;;7.10;1.80;;;7.30;99.90;;;;;;4959798;28;20098;-65
2024/01/24 03:46:21;;;;;;;4.93;1.35;;;7.20;99.90;;;;;;4948116;28;20027;-65
2024/01/24 03:48:47;;;;;;;6.82;1.63;;;7.20;99.90;;;;;;4931905;28;20035;-66
2024/01/24 03:51:13;;;;;;;6.20;1.63;;;7.10;99.90;;;;;;4940363;28;20463;-65
2024/01/24 03:53:38;;;;;;;8.25;1.60;;;7.10;99.90;;;;;;4947490;28;20123;-65
2024/01/24 03:56:06;;;;;;;8.68;2.20;;;7.20;99.90;;;;;;4947192;28;20518;-66
2024/01/24 03:58:31;;;;;;;8.77;1.80;;;7.20;99.90;;;;;;4947234;28;20023;-62
2024/01/24 04:00:57;;;;;;;7.93;1.80;;;7.30;99.90;;;;;;4947918;28;20031;-66
2024/01/24 04:03:23;;;;;;;7.97;1.85;;;7.30;99.90;;;;;;4943456;28;20574;-64
2024/01/24 04:05:48;;;;;;;7.78;1.88;;;7.40;99.90;;;;;;4942992;28;20431;-66
2024/01/24 04:08:14;;;;;;;9.75;1.35;;;7.40;99.90;;;;;;4943954;28;20404;-64
2024/01/24 04:10:40;;;;;;;13.40;2.15;;;7.40;99.90;;;;;;4943829;28;20023;-63
2024/01/24 04:13:05;;;;;;;5.97;1.98;;;7.30;99.90;;;;;;4943376;28;20035;-63
2024/01/24 04:15:31;;;;;;;9.30;1.50;;;7.30;99.90;;;;;;4942817;28;20024;-64
2024/01/24 04:17:59;;;;;;;5.57;1.70;;;7.20;99.90;;;;;;4958567;28;20031;-65
2024/01/24 04:20:24;;;;;;;9.40;2.45;;;7.20;99.90;;;;;;4952917;28;20466;-64
2024/01/24 04:22:50;;;;;;;6.80;1.20;;;7.10;99.90;;;;;;4951644;28;20567;-64
2024/01/24 04:25:15;;;;;;;6.30;1.20;;;7.10;99.90;;;;;;4947638;28;20027;-64
2024/01/24 04:27:41;;;;;;;2.70;0.90;;;7.00;99.90;;;;;;4947881;28;20043;-64
2024/01/24 04:30:08;;;;;;;5.15;1.70;;;6.90;99.90;;;;;;4950041;28;20410;-64
2024/01/24 04:32:34;;;;;;;13.77;2.03;;;7.00;99.90;;;;;;4951588;28;20043;-65
2024/01/24 04:34:59;;;;;;;10.13;1.83;;;7.10;99.90;;;;;;4951799;28;20023;-65
2024/01/24 04:37:25;;;;;;;9.73;2.20;;;7.20;99.90;;;;;;4949225;28;20018;-64
2024/01/24 04:39:51;;;;;;;5.38;1.50;;;7.30;99.90;;;;;;4951533;28;20027;-64
2024/01/24 04:42:17;;;;;;;4.93;1.45;;;7.40;99.90;;;;;;4946065;28;20035;-64
2024/01/24 04:44:43;;;;;;;2.72;1.35;;;7.50;99.90;;;;;;4951025;28;20430;-64
2024/01/24 04:47:09;;;;;;;4.97;1.77;;;7.60;99.90;;;;;;4948424;28;20031;-64
2024/01/24 04:49:35;;;;;;;8.00;1.40;;;7.70;99.90;;;;;;4952807;28;20035;-65
2024/01/24 04:52:01;;;;;;;2.92;1.10;;;7.80;99.90;;;;;;4950109;28;20058;-65
2024/01/24 04:54:28;;;;;;;9.52;2.30;;;7.90;99.90;;;;;;4952865;28;20078;-64
2024/01/24 04:56:53;;;;;;;2.55;1.13;;;8.20;99.90;;;;;;4951124;28;20035;-67
2024/01/24 04:59:19;;;;;;;6.03;1.33;;;8.40;99.90;;;;;;4949886;28;20033;-63
2024/01/24 05:01:44;;;;;;;3.55;1.85;;;8.50;99.90;;;;;;4953029;28;20026;-62
2024/01/24 05:04:11;;;;;;;3.78;1.25;;;8.60;99.90;;;;;;4949495;28;20031;-66
2024/01/24 05:06:37;;;;;;;7.00;1.88;;;8.60;99.90;;;;;;4951264;28;20024;-65
2024/01/24 05:09:02;;;;;;;2.97;1.00;;;8.90;99.90;;;;;;4952163;28;20041;-64
2024/01/24 05:11:28;;;;;;;3.75;1.00;;;9.00;99.90;;;;;;4950209;28;20415;-65
2024/01/24 05:13:55;;;;;;;4.90;1.02;;;9.20;99.90;;;;;;4952428;28;20031;-64
2024/01/24 05:16:21;;;;;;;5.22;0.82;;;9.40;99.90;;;;;;4950023;28;20027;-63
2024/01/24 05:18:47;;;;;;;3.30;1.02;;;9.50;99.90;;;;;;4949148;28;20036;-64
2024/01/24 05:21:12;;;;;;;2.10;0.90;;;9.60;99.90;;;;;;4950631;28;20110;-64
2024/01/24 05:23:38;;;;;;;3.08;0.90;;;9.60;99.90;;;;;;4950426;28;20130;-63
2024/01/24 05:26:04;;;;;;;2.33;0.77;;;9.80;99.90;;;;;;4950779;28;20399;-65
2024/01/24 05:28:29;;;;;;;1.33;0.70;;;9.90;99.90;;;;;;4950021;28;20102;-64
2024/01/24 05:30:55;;;;;;;3.75;1.02;;;9.90;99.90;;;;;;4950287;28;20031;-64
2024/01/24 05:33:21;;;;;;;2.08;0.70;;;10.00;99.90;;;;;;4949749;28;20574;-65
2024/01/24 05:35:46;;;;;;;2.78;1.08;;;10.10;99.90;;;;;;4951481;28;20106;-64
2024/01/24 05:38:12;;;;;;;5.07;1.23;;;10.10;99.90;;;;;;4951271;28;22344;-64
2024/01/24 05:40:38;;;;;;;1.35;0.75;;;10.10;99.90;;;;;;4949572;28;20467;-64
2024/01/24 05:43:04;;;;;;;1.98;1.30;;;10.10;99.90;;;;;;4948434;28;20035;-65
2024/01/24 05:45:29;;;;;;;3.10;1.00;;;10.10;99.90;;;;;;4957738;28;20090;-64
2024/01/24 05:47:55;;;;;;;4.20;0.82;;;10.20;99.90;;;;;;4947104;28;20035;-64
2024/01/24 05:50:21;;;;;;;2.25;0.52;;;10.20;99.90;;;;;;4944916;28;20027;-65
2024/01/24 05:52:46;;;;;;;4.60;0.70;;;10.30;99.90;;;;;;4945961;28;20027;-64
2024/01/24 05:55:12;;;;;;;6.50;0.90;;;10.30;99.90;;;;;;4945661;28;20523;-64
2024/01/24 05:57:41;;;;;;;2.00;0.70;;;10.30;99.90;;;;;;4950526;28;20036;-65
2024/01/24 06:00:14;;;;;;;2.50;1.00;;;10.20;99.90;;;;;;4950967;28;20050;-65
2024/01/24 06:02:40;;;;;;;1.70;0.90;;;10.10;99.90;;;;;;4949823;28;20031;-64
2024/01/24 06:05:07;;;;;;;0.98;0.60;;;10.10;99.90;;;;;;4949291;28;20050;-63
2024/01/24 06:07:33;;;;;;;1.85;0.73;;;10.10;99.90;;;;;;4953270;28;20039;-64
2024/01/24 06:10:00;;;;;;;1.77;1.33;;;10.00;99.90;;;;;;4961308;28;20039;-64
2024/01/24 06:12:25;;;;;;;2.53;1.05;;;10.00;99.90;;;;;;4965510;28;20634;-64
2024/01/24 06:14:52;;;;;;;3.47;0.70;;;10.00;99.90;;;;;;4942728;28;20039;-64
2024/01/24 06:17:17;;;;;;;5.28;0.80;;;9.90;99.90;;;;;;4957502;28;20436;-65
2024/01/24 06:19:43;;;;;;;2.03;0.70;;;9.90;99.90;;;;;;4964645;28;20114;-65
2024/01/24 06:22:09;;;;;;;3.72;1.27;;;9.80;99.90;;;;;;4950766;28;20462;-63
2024/01/24 06:24:36;;;;;;;2.72;1.33;;;9.80;99.90;;;;;;4952269;28;20066;-64
2024/01/24 06:27:01;;;;;;;4.35;0.80;;;9.80;99.90;;;;;;4939137;28;20027;-64
2024/01/24 06:29:27;;;;;;;2.78;0.90;;;9.80;99.90;;;;;;4934473;28;20487;-64
2024/01/24 06:31:53;;;;;;;2.22;0.90;;;9.80;99.90;;;;;;4949008;28;20031;-64
2024/01/24 06:34:19;;;;;;;2.42;0.95;;;9.80;99.90;;;;;;4952200;28;20023;-63
2024/01/24 06:36:44;;;;;;;2.15;0.68;;;9.80;99.90;;;;;;4949656;28;20055;-63
2024/01/24 06:39:10;;;;;;;1.95;1.02;;;9.80;99.90;;;;;;4951662;28;20050;-64
2024/01/24 06:41:36;;;;;;;1.52;0.70;;;9.80;99.90;;;;;;4948979;28;20031;-63
2024/01/24 06:44:05;;;;;;;1.35;0.73;;;9.70;99.90;;;;;;4948957;28;20027;-63
2024/01/24 06:46:31;;;;;;;1.83;1.05;;;9.70;99.90;;;;;;4946785;28;20027;-63
2024/01/24 06:48:57;;;;;;;2.42;1.00;;;9.70;99.90;;;;;;4949148;28;20372;-65
2024/01/24 06:51:23;;;;;;;2.50;1.00;;;9.70;99.90;;;;;;4949637;28;20026;-66
2024/01/24 06:53:48;;;;;;;3.25;1.20;;;9.60;99.90;;;;;;4948087;28;20035;-65
2024/01/24 06:56:14;;;;;;;1.65;0.80;;;9.70;99.90;;;;;;4941431;28;20719;-64
2024/01/24 06:58:40;;;;;;;2.05;0.90;;;9.60;99.90;;;;;;4948625;28;20033;-65
2024/01/24 07:01:06;;;;;;;1.95;1.13;;;9.70;99.90;;;;;;4949617;28;20048;-66
2024/01/24 07:03:32;;;;;;;2.60;1.08;;;9.70;99.90;;;;;;4956248;28;20051;-65
2024/01/24 07:05:58;;;;;;;2.10;1.02;;;9.70;99.90;;;;;;4946342;28;20098;-65
2024/01/24 07:08:24;;;;;;;3.08;1.83;;;9.70;99.90;;;;;;4948785;28;20507;-64
2024/01/24 07:10:50;;;;;;;4.18;1.15;;;9.70;99.90;;;;;;4949232;28;20535;-64
2024/01/24 07:13:16;;;;;;;3.08;1.40;;;9.70;99.90;;;;;;4948993;28;20036;-64
2024/01/24 07:15:42;;;;;;;1.67;0.85;;;9.80;99.90;;;;;;4948290;28;20114;-63
2024/01/24 07:18:09;;;;;;;1.30;0.77;;;9.80;99.90;;;;;;4950477;28;20839;-65
2024/01/24 07:20:35;;;;;;;1.35;0.77;;;9.90;99.90;;;;;;4943638;28;20027;-64
2024/01/24 07:23:01;;;;;;;3.72;1.00;;;9.90;99.90;;;;;;4950086;28;20027;-64
2024/01/24 07:25:27;;;;;;;1.65;0.90;;;9.90;99.90;;;;;;4954448;28;20397;-64
2024/01/24 07:27:53;;;;;;;1.85;0.82;;;9.90;99.90;;;;;;4949398;28;20031;-64
2024/01/24 07:30:22;;;;;;;2.00;0.80;;;9.80;99.90;;;;;;4949121;28;20407;-64
2024/01/24 07:32:48;;;;;;;1.63;0.65;;;9.90;99.90;;;;;;4947598;28;20042;-66
2024/01/24 07:35:14;;;;;;;3.33;0.80;;;9.90;99.90;;;;;;4947438;28;20043;-63
2024/01/24 07:37:40;;;;;;;2.80;0.70;;;9.90;99.90;;;;;;4947920;28;20130;-65
2024/01/24 07:40:07;;;;;;;0.60;0.60;;;10.00;99.90;;;;;;4951259;28;20408;-66
2024/01/24 07:42:33;;;;;;;1.88;0.88;;;10.10;99.90;;;;;;4950144;28;20027;-65
2024/01/24 07:44:59;;;;;;;0.63;0.50;;;10.20;99.90;;;;;;4946068;28;20078;-64
2024/01/24 07:47:24;;;;;;;2.67;0.75;;;10.20;99.90;;;;;;4950433;28;20372;-64
2024/01/24 07:49:50;;;;;;;1.58;0.60;;;10.30;99.90;;;;;;4946485;28;20058;-64
2024/01/24 07:52:16;;;;;;;0.75;0.52;;;10.30;99.90;;;;;;4946012;28;20669;-65
2024/01/24 07:54:41;;;;;;;2.88;0.52;;;10.30;99.90;;;;;;4948258;28;20865;-64
2024/01/24 07:57:07;;;;;;;0.70;0.70;;;10.20;99.90;;;;;;4961097;28;20035;-64
2024/01/24 07:59:33;;;;;;;1.75;0.60;;;10.20;99.90;;;;;;4942905;28;20107;-64
2024/01/24 08:01:59;;;;;;;0.55;0.43;;;10.10;99.90;;;;;;4930033;28;20165;-65
2024/01/24 08:04:25;;;;;;;1.08;0.73;;;10.20;99.90;;;;;;4952249;28;20775;-65
2024/01/24 08:06:50;;;;;;;1.38;0.60;;;10.20;99.90;;;;;;4934116;28;20079;-66
2024/01/24 08:09:17;;;;;;;0.50;0.50;;;10.10;99.90;;;;;;4943955;28;20066;-65
2024/01/24 08:11:43;;;;;;;0.70;0.55;;;10.10;99.90;;;;;;4963575;28;20035;-64
2024/01/24 08:14:09;;;;;;;1.35;0.60;;;10.10;99.90;;;;;;4961310;28;20030;-64
2024/01/24 08:16:35;;;;;;;0.82;0.50;;;10.10;99.90;;;;;;4947856;28;20085;-66
2024/01/24 08:19:01;;;;;;;0.50;0.50;;;10.20;99.90;;;;;;4947463;28;20023;-64
2024/01/24 08:21:27;;;;;;;0.70;0.70;;;10.30;99.90;;;;;;4946786;28;20035;-65
2024/01/24 08:23:53;;;;;;;0.95;0.50;;;10.40;99.90;;;;;;4947796;28;20597;-66
2024/01/24 08:26:19;;;;;;;0.80;0.50;;;10.50;99.90;;;;;;4945903;28;20096;-66
2024/01/24 08:28:44;;;;;;;2.58;0.55;;;10.60;99.90;;;;;;4948345;28;20106;-65
2024/01/24 08:31:11;;;;;;;1.88;0.60;;;10.70;99.90;;;;;;4943467;28;20082;-64
2024/01/24 08:33:37;;;;;;;1.60;0.50;;;10.70;99.90;;;;;;4928088;28;20054;-65
2024/01/24 08:36:03;;;;;;;0.40;0.40;;;10.70;99.90;;;;;;4927120;28;20040;-67
2024/01/24 08:38:28;;;;;;;0.95;0.50;;;10.80;99.90;;;;;;4931069;28;20047;-64
2024/01/24 08:40:54;;;;;;;1.05;0.40;;;10.90;99.90;;;;;;4944616;28;20027;-65
2024/01/24 08:43:20;;;;;;;0.35;0.30;;;10.90;99.90;;;;;;4948367;28;20403;-64
2024/01/24 08:45:45;;;;;;;0.30;0.30;;;11.00;99.90;;;;;;4942564;28;20063;-64
2024/01/24 08:48:12;;;;;;;1.20;0.93;;;11.00;99.90;;;;;;4943308;28;20034;-65
2024/01/24 08:50:38;;;;;;;0.88;0.38;;;11.00;99.90;;;;;;4947674;28;20027;-66
2024/01/24 08:53:03;;;;;;;0.40;0.40;;;11.00;99.90;;;;;;4958907;28;20031;-65
2024/01/24 08:55:29;;;;;;;0.77;0.50;;;11.10;99.90;;;;;;4950673;28;20023;-65
2024/01/24 08:57:55;;;;;;;0.68;0.35;;;11.10;99.90;;;;;;4936987;28;20429;-65
2024/01/24 09:00:20;;;;;;;0.68;0.50;;;11.20;99.90;;;;;;4937309;28;20560;-65
2024/01/24 09:02:46;;;;;;;0.60;0.40;;;11.20;99.90;;;;;;4953311;28;20043;-65
2024/01/24 09:05:12;;;;;;;0.95;0.50;;;11.10;99.90;;;;;;4953404;28;20035;-66
2024/01/24 09:07:38;;;;;;;0.75;0.40;;;11.00;99.90;;;;;;4953948;28;20078;-67
2024/01/24 09:10:04;;;;;;;1.60;0.50;;;10.90;99.90;;;;;;4953141;28;20059;-65
2024/01/24 09:12:30;;;;;;;0.80;0.50;;;10.80;99.90;;;;;;4952534;28;20027;-67
2024/01/24 09:14:56;;;;;;;1.50;0.60;;;10.60;99.90;;;;;;4964877;28;20051;-68
2024/01/24 09:17:22;;;;;;;0.38;0.38;;;10.60;99.90;;;;;;4947445;28;20400;-69
2024/01/24 09:19:47;;;;;;;1.00;0.47;;;10.50;99.90;;;;;;4950990;28;20034;-68
2024/01/24 09:22:13;;;;;;;0.20;0.20;;;10.50;99.90;;;;;;4947259;28;20035;-67
2024/01/24 09:24:39;;;;;;;0.40;0.40;;;10.50;99.90;;;;;;4951729;28;20043;-68
2024/01/24 09:27:04;;;;;;;0.47;0.47;;;10.40;99.90;;;;;;4952405;28;20039;-68
2024/01/24 09:29:30;;;;;;;0.75;0.40;;;10.40;99.90;;;;;;4949745;28;20032;-69
2024/01/24 09:31:56;;;;;;;0.30;0.30;;;10.40;99.90;;;;;;4955987;28;20043;-68
2024/01/24 09:34:26;;;;;;;1.77;0.50;;;10.40;99.90;;;;;;4952413;28;20106;-66
2024/01/24 09:36:54;;;;;;;0.50;0.40;;;10.40;99.90;;;;;;4949731;28;20068;-67
2024/01/24 09:39:25;;;;;;;0.45;0.40;;;10.40;99.90;;;;;;4948129;28;20028;-67
2024/01/24 09:41:51;;;;;;;2.17;0.40;;;10.50;99.90;;;;;;4948229;28;20134;-67
2024/01/24 09:44:17;;;;;;;1.10;0.40;;;10.60;99.90;;;;;;4958260;28;20109;-67
2024/01/24 09:46:43;;;;;;;0.38;0.38;;;10.90;99.90;;;;;;4954293;28;20035;-67
2024/01/24 09:49:12;;;;;;;0.40;0.30;;;11.30;99.90;;;;;;4947216;28;20042;-67
2024/01/24 09:51:40;;;;;;;0.50;0.38;;;11.60;99.90;;;;;;4948374;28;20024;-67
2024/01/24 09:54:07;;;;;;;0.35;0.20;;;11.90;99.90;;;;;;4945343;28;20423;-65
2024/01/24 09:56:37;;;;;;;0.52;0.32;;;12.20;99.90;;;;;;4945653;28;20046;-66
2024/01/24 09:59:07;;;;;;;0.95;0.40;;;12.50;99.90;;;;;;4946688;28;20019;-67
2024/01/24 10:01:38;;;;;;;0.63;0.30;;;12.80;99.90;;;;;;4949085;28;20026;-66
2024/01/24 10:04:04;;;;;;;0.57;0.57;;;12.90;99.90;;;;;;4948756;28;20110;-67
2024/01/24 10:06:29;;;;;;;1.02;0.40;;;12.90;99.90;;;;;;4948419;28;20423;-69
2024/01/24 10:08:56;;;;;;;0.98;0.20;;;12.90;99.90;;;;;;4951399;28;20031;-67
2024/01/24 10:11:23;;;;;;;0.20;0.20;;;12.90;99.90;;;;;;4950952;28;20034;-68
2024/01/24 10:13:49;;;;;;;2.38;0.30;;;12.90;99.90;;;;;;4952132;28;20023;-66
2024/01/24 10:16:15;;;;;;;0.28;0.28;;;12.90;99.90;;;;;;4951423;28;20098;-67
2024/01/24 10:18:42;;;;;;;0.95;0.30;;;12.80;99.90;;;;;;4948934;28;20042;-65
2024/01/24 10:21:07;;;;;;;0.45;0.28;;;12.50;99.90;;;;;;4950680;28;20035;-67
2024/01/24 10:23:33;;;;;;;0.20;0.20;;;12.30;99.90;;;;;;4947870;28;20034;-66
2024/01/24 10:26:00;;;;;;;0.20;0.20;;;12.10;99.90;;;;;;4948544;28;20449;-66
2024/01/24 10:28:25;;;;;;;0.45;0.28;;;12.00;99.90;;;;;;4965679;28;20019;-66
2024/01/24 10:30:51;;;;;;;0.85;0.30;;;12.00;99.90;;;;;;4946998;28;20530;-67
2024/01/24 10:33:17;;;;;;;0.30;0.22;;;12.10;99.90;;;;;;4952506;28;20095;-66
2024/01/24 10:35:43;;;;;;;1.02;0.30;;;12.20;99.90;;;;;;4954614;28;20026;-67
2024/01/24 10:38:11;;;;;;;1.23;0.40;;;12.60;99.90;;;;;;4951699;28;20042;-67
2024/01/24 10:40:41;;;;;;;0.82;0.30;;;12.80;99.90;;;;;;4956273;28;20082;-67
2024/01/24 10:43:12;;;;;;;0.55;0.30;;;12.80;99.90;;;;;;4941981;28;20031;-68
2024/01/24 10:45:45;;;;;;;0.95;0.40;;;12.60;99.90;;;;;;4947800;28;20431;-67
2024/01/24 10:48:11;;;;;;;1.40;0.38;;;12.40;99.90;;;;;;4950427;28;20039;-67
2024/01/24 10:50:41;;;;;;;0.57;0.30;;;12.20;99.90;;;;;;4949357;28;20023;-67
2024/01/24 10:53:08;;;;;;;0.50;0.40;;;12.10;99.90;;;;;;4947036;28;20087;-67
2024/01/24 10:55:36;;;;;;;0.85;0.73;;;12.10;99.90;;;;;;4945910;28;20096;-66
2024/01/24 10:58:02;;;;;;;0.47;0.35;;;12.20;99.90;;;;;;4951063;28;20098;-66
2024/01/24 11:00:29;;;;;;;2.45;0.40;;;12.20;99.90;;;;;;4951423;28;20074;-66
2024/01/24 11:02:56;;;;;;;2.88;0.50;;;12.20;99.90;;;;;;4954281;28;20039;-67
2024/01/24 11:05:24;;;;;;;3.20;0.50;;;12.20;99.90;;;;;;4951175;28;20443;-66
2024/01/24 11:08:03;;;;;;;2.53;0.40;;;12.20;99.90;;;;;;4952880;28;20035;-67
2024/01/24 11:10:36;;;;;;;5.38;0.90;;;12.10;99.90;;;;;;4946172;28;20415;-66
2024/01/24 11:13:04;;;;;;;2.15;0.80;;;12.00;99.90;;;;;;4951951;28;20043;-65
2024/01/24 11:15:31;;;;;;;3.92;1.00;;;12.00;99.90;;;;;;4948464;28;20027;-66
2024/01/24 11:18:22;;;;;;;5.53;1.80;;;12.00;99.90;;;;;;4944541;28;20051;-64
2024/01/24 11:20:55;;;;;;;3.78;0.60;;;12.00;99.90;;;;;;4943660;28;20044;-67
2024/01/24 11:23:41;;;;;;;4.38;0.80;;;11.90;99.90;;;;;;4948837;28;20072;-66
2024/01/24 11:26:11;;;;;;;6.60;1.88;;;11.80;99.90;;;;;;4946130;28;20061;-66
2024/01/24 11:28:38;;;;;;;1.60;0.85;;;11.80;99.90;;;;;;4948732;28;20104;-66
2024/01/24 11:31:04;;;;;;;3.58;0.73;;;11.70;99.90;;;;;;4947235;28;20038;-66
2024/01/24 11:33:30;;;;;;;3.17;0.88;;;11.70;99.90;;;;;;4962094;28;20034;-66
2024/01/24 11:35:56;;;;;;;3.22;0.98;;;11.70;99.90;;;;;;4948571;28;20062;-67
2024/01/24 11:38:26;;;;;;;5.95;1.25;;;11.60;99.90;;;;;;4950942;28;20109;-65
2024/01/24 11:41:02;;;;;;;4.43;1.00;;;11.60;99.90;;;;;;4948442;28;20035;-67
2024/01/24 11:43:32;;;;;;;4.05;1.05;;;11.60;99.90;;;;;;4948671;28;20078;-67
2024/01/24 11:45:58;;;;;;;6.25;1.25;;;11.60;99.90;;;;;;4946775;28;20032;-66
2024/01/24 11:48:29;;;;;;;4.20;1.30;;;11.60;99.90;;;;;;4947927;28;20031;-65
2024/01/24 11:51:08;;;;;;;3.07;1.23;;;11.70;99.90;;;;;;4963017;28;20135;-66
2024/01/24 11:53:34;;;;;;;3.15;1.13;;;11.80;99.90;;;;;;4946768;28;20038;-66
2024/01/24 11:56:04;;;;;;;3.80;0.77;;;11.80;99.90;;;;;;4949342;28;20035;-66
2024/01/24 11:58:30;;;;;;;11.40;1.30;;;11.80;99.90;;;;;;4947382;28;20042;-65
2024/01/24 12:01:02;;;;;;;8.23;1.63;;;11.90;99.90;;;;;;4949096;28;20031;-66
2024/01/24 12:03:27;;;;;;;6.63;1.10;;;11.90;99.90;;;;;;4949742;28;20040;-65
2024/01/24 12:05:53;;;;;;;6.30;1.20;;;11.90;99.90;;;;;;4947661;28;20054;-67
2024/01/24 12:08:20;;;;;;;6.07;0.90;;;11.90;99.90;;;;;;4946485;28;20039;-66
2024/01/24 12:10:46;;;;;;;6.63;1.00;;;11.80;99.90;;;;;;4944393;28;20039;-67
2024/01/24 12:13:13;;;;;;;3.85;1.02;;;11.70;99.90;;;;;;4947931;28;20046;-67
2024/01/24 12:15:41;;;;;;;7.88;1.17;;;11.60;99.90;;;;;;4952068;28;20178;-65
2024/01/24 12:18:14;;;;;;;8.23;2.20;;;11.50;99.90;;;;;;4948142;28;20122;-66
2024/01/24 12:20:46;;;;;;;7.28;1.33;;;11.60;99.90;;;;;;4942810;28;20035;-67
2024/01/24 12:23:14;;;;;;;7.38;1.73;;;11.80;99.90;;;;;;4942598;28;20385;-67
2024/01/24 12:25:39;;;;;;;7.97;1.30;;;12.10;99.90;;;;;;4949294;28;20026;-64
2024/01/24 12:28:06;;;;;;;6.50;1.30;;;12.30;99.90;;;;;;4948462;28;20492;-67
2024/01/24 12:30:34;;;;;;;4.72;1.10;;;12.60;99.90;;;;;;4947678;28;20039;-65
2024/01/24 12:33:04;;;;;;;8.77;1.23;;;13.00;99.90;;;;;;4944273;28;20123;-65
2024/01/24 12:35:30;;;;;;;7.93;1.23;;;13.00;99.90;;;;;;4945173;28;20048;-65
2024/01/24 12:37:59;;;;;;;4.43;1.10;;;12.90;99.90;;;;;;4954946;28;20027;-65
2024/01/24 12:40:33;;;;;;;5.55;1.98;;;12.70;99.90;;;;;;4954022;28;20083;-65
2024/01/24 12:43:00;;;;;;;6.72;2.70;;;12.50;99.90;;;;;;4950444;28;20031;-66
2024/01/24 12:45:27;;;;;;;10.85;1.95;;;12.30;99.90;;;;;;4947061;28;20050;-64